If you wish to contribute or participate in the discussions about articles you are invited to join SKYbrary as a registered user

 Actions

Pamplona Airport

From SKYbrary Wiki

LEPP
Airport
ICAO: LEPP – IATA: PNA
Summary
Name Pamplona Airport
Region Europe
Territory Spain ES.gif
Location
Serving Pamplona
Elevation 458.419 m <br />1,504 ft <br />1,504 ft458.419 m <br />
Type medium airport
Coordinates 42° 46' 12.14" N, 1° 38' 46.79" W
Runways
Designator Length Width Surface ROPS
15/33 0 m0 ft <br /> 0 m0 ft <br /> UNK yes/yes
16/34 2207 m7,240.814 ft <br /> 45 m147.638 ft <br /> ASP no/no


METAR
Observation LEPP 130800Z VRB02KT CAVOK 21/16 Q1023
Station Pamplona / Noain
Date/Time 13 June 2021 08:00:00
Wind direction °
Wind speed 02 kts
Lowest cloud amount clouds and visibility OK
Temperature 21°C
Dew point 16°C
Humidity 73%
QNH 1023 hPa
Weather condition n/a